createdAt,value
2017-11-04T11:49:37.763Z,998.71
2017-11-04T11:50:37.774Z,998.66
2017-11-04T11:51:37.788Z,998.65
2017-11-04T11:52:37.801Z,998.64
2017-11-04T11:53:37.812Z,998.63
2017-11-04T11:54:37.825Z,998.59
2017-11-04T11:55:37.838Z,998.67
2017-11-04T11:56:37.851Z,998.65
2017-11-04T11:57:37.872Z,998.63
2017-11-04T11:58:37.878Z,998.66
2017-11-04T11:59:37.893Z,998.66
2017-11-04T12:00:37.908Z,998.68
2017-11-04T12:01:37.927Z,998.67
2017-11-04T12:02:37.937Z,998.59
2017-11-04T12:03:37.953Z,998.53
2017-11-04T12:04:37.969Z,998.51
2017-11-04T12:05:37.985Z,998.5
2017-11-04T12:06:38.008Z,998.47
2017-11-04T12:07:38.016Z,998.47
2017-11-04T12:08:38.034Z,998.48
2017-11-04T12:09:38.049Z,998.52
2017-11-04T12:10:38.066Z,998.49
2017-11-04T12:11:38.083Z,998.49
2017-11-04T12:12:38.100Z,998.49
2017-11-04T12:13:38.122Z,998.49
2017-11-04T12:14:38.132Z,998.47
2017-11-04T12:15:38.150Z,998.48
2017-11-04T12:16:38.168Z,998.45
2017-11-04T12:17:38.182Z,998.39
2017-11-04T12:18:38.205Z,998.43
2017-11-04T12:19:38.218Z,998.43
2017-11-04T12:20:38.234Z,998.4
2017-11-04T12:21:38.253Z,998.42
2017-11-04T12:22:38.271Z,998.34
2017-11-04T12:23:38.290Z,998.31
2017-11-04T12:24:38.306Z,998.33
2017-11-04T12:25:38.324Z,998.26
2017-11-04T12:26:38.340Z,998.21
2017-11-04T12:27:38.360Z,998.17
2017-11-04T12:28:38.377Z,998.14
2017-11-04T12:29:38.396Z,998.14
2017-11-04T12:30:38.415Z,998.12
2017-11-04T12:31:38.434Z,998.09
2017-11-04T12:32:38.450Z,998.11
2017-11-04T12:33:38.467Z,998.08
2017-11-04T12:34:38.486Z,998.06
2017-11-04T12:35:38.504Z,998.01
2017-11-04T12:36:38.524Z,998
2017-11-04T12:37:38.545Z,997.94
2017-11-04T12:38:38.560Z,997.93
2017-11-04T12:39:38.578Z,997.91
2017-11-04T12:40:38.597Z,997.91
2017-11-04T12:41:38.632Z,997.94
2017-11-04T12:42:38.634Z,997.91
2017-11-04T12:43:38.655Z,997.95
2017-11-04T12:44:38.671Z,997.99
2017-11-04T12:45:38.691Z,997.94
2017-11-04T12:46:38.709Z,997.95
2017-11-04T12:47:38.727Z,997.98
2017-11-04T12:48:38.747Z,997.94
2017-11-04T12:49:38.766Z,997.92
2017-11-04T12:50:38.784Z,997.98
2017-11-04T12:51:38.802Z,997.98
2017-11-04T12:52:38.822Z,997.91
2017-11-04T12:53:38.840Z,997.86
2017-11-04T12:54:38.859Z,997.91
2017-11-04T12:55:38.880Z,997.87
2017-11-04T12:56:38.898Z,997.85
2017-11-04T12:57:38.917Z,997.89
2017-11-04T12:58:38.937Z,997.83
2017-11-04T12:59:38.957Z,997.88
2017-11-04T13:00:38.976Z,997.85
2017-11-04T13:01:38.994Z,997.83
2017-11-04T13:02:39.014Z,997.84
2017-11-04T13:03:39.032Z,997.82
2017-11-04T13:04:39.071Z,997.84
2017-11-04T13:05:39.071Z,997.85
2017-11-04T13:06:39.090Z,997.83
2017-11-04T13:07:39.110Z,997.83
2017-11-04T13:08:39.129Z,997.86
2017-11-04T13:09:39.148Z,997.87
2017-11-04T13:10:39.168Z,997.83
2017-11-04T13:11:39.190Z,997.8
2017-11-04T13:12:39.205Z,997.83
2017-11-04T13:13:39.225Z,997.8
2017-11-04T13:14:39.249Z,997.84
2017-11-04T13:15:39.265Z,997.8
2017-11-04T13:16:39.286Z,997.8
2017-11-04T13:17:39.307Z,997.77
2017-11-04T13:18:39.323Z,997.8
2017-11-04T13:19:39.345Z,997.8
2017-11-04T13:20:39.369Z,997.84
2017-11-04T13:21:39.382Z,997.81
2017-11-04T13:22:39.402Z,997.84
2017-11-04T13:23:39.422Z,997.88
2017-11-04T13:24:39.442Z,997.85
2017-11-04T13:25:39.473Z,997.87
2017-11-04T13:26:39.479Z,997.82
2017-11-04T13:27:39.502Z,997.82
2017-11-04T13:28:39.521Z,997.83
2017-11-04T13:29:39.540Z,997.84
2017-11-04T13:30:39.560Z,997.85
2017-11-04T13:31:39.579Z,997.88
2017-11-04T13:32:39.598Z,997.88
2017-11-04T13:33:39.617Z,997.86
2017-11-04T13:34:39.637Z,997.86
2017-11-04T13:35:39.662Z,997.82
2017-11-04T13:36:39.678Z,997.81
2017-11-04T13:37:39.698Z,997.8
2017-11-04T13:38:39.718Z,997.83
2017-11-04T13:39:39.736Z,997.83
2017-11-04T13:40:39.756Z,997.8
2017-11-04T13:41:39.805Z,997.86
2017-11-04T13:42:39.795Z,997.85
2017-11-04T13:43:39.816Z,997.78
2017-11-04T13:44:39.835Z,997.86
2017-11-04T13:45:39.858Z,997.85
2017-11-04T13:46:39.877Z,997.83
2017-11-04T13:47:39.895Z,997.83
2017-11-04T13:48:39.913Z,997.78
2017-11-04T13:49:39.935Z,997.78
2017-11-04T13:50:39.954Z,997.81
2017-11-04T13:51:39.975Z,997.78
2017-11-04T13:52:39.993Z,997.86
2017-11-04T13:53:40.014Z,997.84
2017-11-04T13:54:40.034Z,997.82
2017-11-04T13:55:40.060Z,997.82
2017-11-04T13:56:40.074Z,997.84
2017-11-04T13:57:40.093Z,997.81
2017-11-04T13:58:40.113Z,997.81
2017-11-04T13:59:40.133Z,997.81
2017-11-04T14:00:40.156Z,997.78
2017-11-04T14:01:40.174Z,997.73
2017-11-04T14:02:40.192Z,997.74
2017-11-04T14:03:40.211Z,997.68
2017-11-04T14:04:40.232Z,997.69
2017-11-04T14:05:40.254Z,997.63
2017-11-04T14:06:40.271Z,997.69
2017-11-04T14:07:40.291Z,997.69
2017-11-04T14:08:40.313Z,997.69
2017-11-04T14:09:40.331Z,997.68
2017-11-04T14:10:40.351Z,997.66
2017-11-04T14:11:40.371Z,997.67
2017-11-04T14:12:40.391Z,997.63
2017-11-04T14:13:40.414Z,997.61
2017-11-04T14:14:40.429Z,997.66
2017-11-04T14:15:40.450Z,997.58
2017-11-04T14:16:40.470Z,997.61
2017-11-04T14:17:40.491Z,997.6
2017-11-04T14:18:40.511Z,997.6
2017-11-04T14:19:40.530Z,997.58
2017-11-04T14:20:40.551Z,997.55
2017-11-04T14:21:40.570Z,997.58
2017-11-04T14:22:40.590Z,997.58
2017-11-04T14:23:40.609Z,997.55
2017-11-04T14:24:40.630Z,997.57
2017-11-04T14:25:40.652Z,997.59
2017-11-04T14:26:40.672Z,997.59
2017-11-04T14:27:40.689Z,997.57
2017-11-04T14:28:40.708Z,997.57
2017-11-04T14:29:40.730Z,997.59
2017-11-04T14:30:40.749Z,997.58
2017-11-04T14:31:40.772Z,997.56
2017-11-04T14:32:40.788Z,997.58
2017-11-04T14:33:40.813Z,997.56
2017-11-04T14:34:40.829Z,997.54
2017-11-04T14:35:40.850Z,997.55
2017-11-04T14:36:40.868Z,997.52
2017-11-04T14:37:40.889Z,997.53
2017-11-04T14:38:40.909Z,997.52
2017-11-04T14:39:40.929Z,997.47
2017-11-04T14:40:40.950Z,997.49
2017-11-04T14:41:40.968Z,997.46
2017-11-04T14:42:40.988Z,997.51
2017-11-04T14:43:41.006Z,997.47
2017-11-04T14:44:41.029Z,997.43
2017-11-04T14:45:41.047Z,997.44
2017-11-04T14:46:41.075Z,997.44
2017-11-04T14:47:41.089Z,997.43
2017-11-04T14:48:41.105Z,997.45
2017-11-04T14:49:41.126Z,997.38
2017-11-04T14:50:41.152Z,997.39
2017-11-04T14:51:41.168Z,997.35
2017-11-04T14:52:41.187Z,997.34
2017-11-04T14:53:41.207Z,997.33
2017-11-04T14:54:41.224Z,997.3
2017-11-04T14:55:41.246Z,997.29
2017-11-04T14:56:41.265Z,997.26
2017-11-04T14:57:41.286Z,997.27
2017-11-04T14:58:41.306Z,997.26
2017-11-04T14:59:41.329Z,997.25
2017-11-04T15:00:41.345Z,997.26
2017-11-04T15:01:41.367Z,997.21
2017-11-04T15:02:41.384Z,997.25
2017-11-04T15:03:41.404Z,997.23
2017-11-04T15:04:41.423Z,997.21
2017-11-04T15:05:41.442Z,997.21
2017-11-04T15:06:41.464Z,997.17
2017-11-04T15:07:41.484Z,997.19
2017-11-04T15:08:41.501Z,997.18
2017-11-04T15:09:41.545Z,997.16
2017-11-04T15:10:41.542Z,997.24
2017-11-04T15:11:41.561Z,997.3
2017-11-04T15:12:41.581Z,997.31
2017-11-04T15:13:41.600Z,997.3
2017-11-04T15:14:41.621Z,997.32
2017-11-04T15:15:41.641Z,997.34
2017-11-04T15:16:41.659Z,997.37
2017-11-04T15:17:41.679Z,997.29
2017-11-04T15:18:41.702Z,997.29
2017-11-04T15:19:41.721Z,997.33
2017-11-04T15:20:41.738Z,997.32
2017-11-04T15:21:41.760Z,997.33
2017-11-04T15:22:41.778Z,997.29
2017-11-04T15:23:41.796Z,997.25
2017-11-04T15:24:41.817Z,997.21
2017-11-04T15:25:41.835Z,997.2
2017-11-04T15:26:41.864Z,997.19
2017-11-04T15:27:41.874Z,997.23
2017-11-04T15:28:41.895Z,997.27
2017-11-04T15:29:41.914Z,997.27
2017-11-04T15:30:41.933Z,997.26
2017-11-04T15:31:41.953Z,997.25
2017-11-04T15:32:41.975Z,997.27
2017-11-04T15:33:41.993Z,997.25
2017-11-04T15:34:42.012Z,997.27
2017-11-04T15:35:42.030Z,997.28
2017-11-04T15:36:42.050Z,997.23
2017-11-04T15:37:42.071Z,997.24
2017-11-04T15:38:42.089Z,997.15
2017-11-04T15:39:42.108Z,997.22
2017-11-04T15:40:42.130Z,997.27
2017-11-04T15:41:42.147Z,997.26
2017-11-04T15:42:42.168Z,997.27
2017-11-04T15:43:42.188Z,997.22
2017-11-04T15:44:42.206Z,997.23
2017-11-04T15:45:42.225Z,997.22
2017-11-04T15:46:42.244Z,997.18
2017-11-04T15:47:42.266Z,997.15
2017-11-04T15:48:42.285Z,997.15
2017-11-04T15:49:42.301Z,997.14
2017-11-04T15:50:42.321Z,997.11
2017-11-04T15:51:42.341Z,997.18
2017-11-04T15:52:42.360Z,997.18
2017-11-04T15:53:42.381Z,997.19
2017-11-04T15:54:42.398Z,997.15
2017-11-04T15:55:42.418Z,997.18
2017-11-04T15:56:42.436Z,997.2
2017-11-04T15:57:42.456Z,997.2
2017-11-04T15:58:42.477Z,997.24
2017-11-04T15:59:42.496Z,997.21
2017-11-04T16:00:42.513Z,997.19
2017-11-04T16:01:42.534Z,997.16
2017-11-04T16:02:42.552Z,997.2
2017-11-04T16:03:42.571Z,997.17
2017-11-04T16:04:42.591Z,997.18
2017-11-04T16:05:42.609Z,997.2
2017-11-04T16:06:42.630Z,997.19
2017-11-04T16:07:42.647Z,997.21
2017-11-04T16:08:42.668Z,997.27
2017-11-04T16:09:42.687Z,997.28
2017-11-04T16:10:42.705Z,997.28
2017-11-04T16:11:42.727Z,997.25
2017-11-04T16:12:42.744Z,997.28
2017-11-04T16:13:42.762Z,997.23
2017-11-04T16:14:42.781Z,997.25
2017-11-04T16:15:42.800Z,997.24
2017-11-04T16:16:42.820Z,997.22
2017-11-04T16:17:42.840Z,997.18
2017-11-04T16:18:42.857Z,997.17
2017-11-04T16:19:42.878Z,997.19
2017-11-04T16:20:42.895Z,997.22
2017-11-04T16:21:42.915Z,997.22
2017-11-04T16:24:00.545Z,997.2
2017-11-04T16:25:00.566Z,997.16
2017-11-04T16:26:00.585Z,997.19
2017-11-04T16:27:00.604Z,997.16
2017-11-04T16:28:00.628Z,997.17
2017-11-04T16:29:00.644Z,997.18
2017-11-04T16:30:00.707Z,997.16
2017-11-04T16:31:00.680Z,997.1
2017-11-04T16:32:00.697Z,997.09
2017-11-04T16:33:00.716Z,997.11
2017-11-04T16:34:00.745Z,997.09
2017-11-04T16:35:00.753Z,997.1
2017-11-04T16:36:00.779Z,997.12
2017-11-04T16:37:00.790Z,997.1
2017-11-04T16:38:00.811Z,997.1
2017-11-04T16:39:00.830Z,997.14
2017-11-04T16:40:00.849Z,997.12
2017-11-04T16:41:00.865Z,997.13
2017-11-04T16:42:00.892Z,997.12
2017-11-04T16:43:00.905Z,997.1
2017-11-04T16:44:00.930Z,997.04
2017-11-04T16:45:00.941Z,997.05
2017-11-04T16:46:00.963Z,997.1
2017-11-04T16:47:00.979Z,997.09
2017-11-04T16:48:01.005Z,997.06
2017-11-04T16:49:01.014Z,997.06
2017-11-04T16:50:01.043Z,997.01
2017-11-04T16:51:01.054Z,997.04
2017-11-04T16:52:01.080Z,997.03
2017-11-04T16:53:01.093Z,997
2017-11-04T16:54:01.112Z,996.98
2017-11-04T16:55:01.129Z,997.01
2017-11-04T16:56:01.157Z,997.05
2017-11-04T16:57:01.166Z,997.04
2017-11-04T16:58:01.192Z,997.06
2017-11-04T16:59:01.204Z,997.03
2017-11-04T17:00:01.238Z,997.06
2017-11-04T17:01:01.240Z,997.08
2017-11-04T17:02:01.267Z,997.09
2017-11-04T17:03:01.278Z,997.04
2017-11-04T17:04:01.308Z,997.07
2017-11-04T17:05:01.316Z,997.08
2017-11-04T17:06:01.338Z,997.06
2017-11-04T17:07:01.357Z,997.03
2017-11-04T17:08:01.372Z,997.05
2017-11-04T17:09:01.389Z,997.06
2017-11-04T17:10:01.413Z,997.07
2017-11-04T17:11:01.427Z,997.1
2017-11-04T17:12:01.444Z,997.12
2017-11-04T17:13:01.479Z,997.1
2017-11-04T17:14:01.489Z,997.12
2017-11-04T17:15:01.501Z,997.11
2017-11-04T17:16:01.520Z,997.09
2017-11-04T17:17:01.539Z,997.09
2017-11-04T17:18:01.559Z,997.05
2017-11-04T17:19:01.575Z,997.03
2017-11-04T17:20:01.595Z,996.99
2017-11-04T17:21:01.612Z,997.02
2017-11-04T17:22:01.633Z,997.05
2017-11-04T17:23:01.650Z,997.07
2017-11-04T17:24:01.670Z,997.15
2017-11-04T17:25:01.686Z,997.03
2017-11-04T17:26:01.706Z,997.04
2017-11-04T17:27:01.725Z,997.01
2017-11-04T17:28:01.757Z,996.99
2017-11-04T17:29:01.779Z,996.95
2017-11-04T17:30:01.795Z,996.9
2017-11-04T17:31:01.797Z,996.87
2017-11-04T17:32:01.817Z,996.95
2017-11-04T17:33:01.848Z,996.89
2017-11-04T17:34:01.856Z,996.91
2017-11-04T17:35:01.871Z,996.91
2017-11-04T17:36:01.889Z,996.92
2017-11-04T17:37:01.923Z,996.9
2017-11-04T17:38:01.928Z,996.85
2017-11-04T17:39:01.945Z,996.91
2017-11-04T17:40:01.963Z,996.92
2017-11-04T17:41:01.981Z,996.93
2017-11-04T17:42:02.015Z,996.96
2017-11-04T17:43:02.019Z,996.93
2017-11-04T17:44:02.038Z,996.91
2017-11-04T17:45:02.056Z,996.94
2017-11-04T17:46:02.071Z,996.94
2017-11-04T17:47:02.093Z,996.95
2017-11-04T17:48:02.112Z,996.87
2017-11-04T17:49:02.128Z,996.84
2017-11-04T17:50:02.148Z,996.84
2017-11-04T17:51:02.166Z,996.83
2017-11-04T17:52:02.189Z,996.86
2017-11-04T17:53:02.202Z,996.95
2017-11-04T17:54:02.221Z,996.96
2017-11-04T17:55:02.239Z,997
2017-11-04T17:56:02.261Z,997.01
2017-11-04T17:57:02.275Z,997.01
2017-11-04T17:58:02.294Z,997.01
2017-11-04T17:59:02.327Z,996.93
2017-11-04T18:00:02.350Z,996.93
2017-11-04T18:01:02.349Z,996.94
2017-11-04T18:02:02.367Z,996.91
2017-11-04T18:03:02.382Z,996.96
2017-11-04T18:04:02.403Z,996.92
2017-11-04T18:05:02.429Z,996.91
2017-11-04T18:06:02.440Z,996.97
2017-11-04T18:07:02.455Z,996.96
2017-11-04T18:08:02.476Z,996.96
2017-11-04T18:09:02.507Z,996.94
2017-11-04T18:10:02.521Z,996.95
2017-11-04T18:11:02.532Z,996.95
2017-11-04T18:12:02.548Z,996.86
2017-11-04T18:13:02.566Z,996.86
2017-11-04T18:14:02.602Z,996.87
2017-11-04T18:15:02.603Z,996.85
2017-11-04T18:16:02.621Z,996.87
2017-11-04T18:17:02.639Z,996.86
2017-11-04T18:18:02.685Z,996.87
2017-11-04T18:19:02.675Z,996.85
2017-11-04T18:20:02.694Z,996.83
2017-11-04T18:21:02.713Z,996.86
2017-11-04T18:22:02.730Z,996.89
2017-11-04T18:23:02.761Z,996.89
2017-11-04T18:24:02.775Z,996.91
2017-11-04T18:25:02.787Z,996.91
2017-11-04T18:26:02.800Z,996.9
2017-11-04T18:27:02.822Z,996.94
2017-11-04T18:28:02.853Z,996.9
2017-11-04T18:29:02.860Z,996.89
2017-11-04T18:30:02.883Z,996.88
2017-11-04T18:31:02.891Z,996.91
2017-11-04T18:32:02.912Z,996.88
2017-11-04T18:33:02.928Z,996.9
2017-11-04T18:34:02.946Z,996.88
2017-11-04T18:35:02.966Z,996.84
2017-11-04T18:36:02.984Z,996.87
2017-11-04T18:37:03.000Z,996.86
2017-11-04T18:38:03.035Z,996.89
2017-11-04T18:39:03.038Z,996.88
2017-11-04T18:40:03.059Z,996.85
2017-11-04T18:41:03.074Z,996.86
2017-11-04T18:42:03.107Z,996.84
2017-11-04T18:43:03.110Z,996.85
2017-11-04T18:44:03.143Z,996.84
2017-11-04T18:45:03.162Z,996.78
2017-11-04T18:46:03.179Z,996.85
2017-11-04T18:47:03.186Z,996.83
2017-11-04T18:48:03.214Z,996.82
2017-11-04T18:49:03.218Z,996.85
2017-11-04T18:50:03.250Z,996.81
2017-11-04T18:51:03.269Z,996.79
2017-11-04T18:52:03.271Z,996.83
2017-11-04T18:53:03.288Z,996.85
2017-11-04T18:54:03.323Z,996.85
2017-11-04T18:55:03.323Z,996.84
2017-11-04T18:56:03.355Z,996.81
2017-11-04T18:57:03.363Z,996.8
2017-11-04T18:58:03.386Z,996.81
2017-11-04T18:59:03.396Z,996.75
2017-11-04T19:00:03.421Z,996.76
2017-11-04T19:01:03.434Z,996.75
2017-11-04T19:02:03.452Z,996.76
2017-11-04T19:03:03.470Z,996.76
2017-11-04T19:04:03.502Z,996.77
2017-11-04T19:05:03.522Z,996.75
2017-11-04T19:06:03.539Z,996.74
2017-11-04T19:07:03.541Z,996.77
2017-11-04T19:08:03.573Z,996.77
2017-11-04T19:09:03.578Z,996.8
2017-11-04T19:10:03.624Z,996.8
2017-11-04T19:11:03.617Z,996.86
2017-11-04T19:12:03.629Z,996.84
2017-11-04T19:13:03.663Z,996.84
2017-11-04T19:14:03.666Z,996.81
2017-11-04T19:15:03.700Z,996.86
2017-11-04T19:16:03.702Z,996.84
2017-11-04T19:17:03.719Z,996.84
2017-11-04T19:18:03.738Z,996.86
2017-11-04T19:19:03.757Z,996.85
2017-11-04T19:20:03.789Z,996.84
2017-11-04T19:21:03.813Z,996.89
2017-11-04T19:22:03.810Z,996.91
2017-11-04T19:23:03.827Z,996.86
2017-11-04T19:24:03.849Z,996.89
2017-11-04T19:25:03.862Z,996.91
2017-11-04T19:26:03.879Z,996.93
2017-11-04T19:27:03.900Z,996.91
2017-11-04T19:28:03.932Z,996.93
2017-11-04T19:29:03.948Z,996.95
2017-11-04T19:30:03.954Z,996.93
2017-11-04T19:31:03.985Z,996.96
2017-11-04T19:32:04.002Z,996.94
2017-11-04T19:33:04.021Z,996.95
2017-11-04T19:34:04.023Z,996.99
2017-11-04T19:35:04.041Z,996.98
2017-11-04T19:36:04.072Z,996.93
2017-11-04T19:37:04.079Z,996.98
2017-11-04T19:38:04.093Z,997
2017-11-04T19:39:04.110Z,996.98
2017-11-04T19:40:04.142Z,997.01
2017-11-04T19:41:04.147Z,997.03
2017-11-04T19:42:04.166Z,997.03
2017-11-04T19:43:04.183Z,997.03
2017-11-04T19:44:04.201Z,997.03
2017-11-04T19:45:04.219Z,997.05
2017-11-04T19:46:04.235Z,997.07
2017-11-04T19:47:04.255Z,997.05
2017-11-04T19:48:04.288Z,997.08
2017-11-04T19:49:04.290Z,997.1
2017-11-04T19:50:04.322Z,997.07
2017-11-04T19:51:04.339Z,997.15
2017-11-04T19:52:04.342Z,997.17
2017-11-04T19:53:04.361Z,997.17
2017-11-04T19:54:04.391Z,997.21
2017-11-04T19:55:04.411Z,997.2
2017-11-04T19:56:04.427Z,997.15
2017-11-04T19:57:04.445Z,997.23
2017-11-04T19:58:04.447Z,997.23
2017-11-04T19:59:04.483Z,997.22
2017-11-04T20:00:04.484Z,997.22
2017-11-04T20:01:04.499Z,997.24
2017-11-04T20:02:04.520Z,997.25
2017-11-04T20:03:04.539Z,997.23
2017-11-04T20:04:04.555Z,997.2
2017-11-04T20:05:04.591Z,997.19
2017-11-04T20:06:04.590Z,997.2
2017-11-04T20:07:04.623Z,997.2
2017-11-04T20:08:04.627Z,997.2
2017-11-04T20:09:04.650Z,997.17
2017-11-04T20:10:04.664Z,997.21
2017-11-04T20:11:04.681Z,997.19
2017-11-04T20:12:04.694Z,997.17
2017-11-04T20:13:04.716Z,997.12
2017-11-04T20:14:04.745Z,997.14
2017-11-04T20:15:04.749Z,997.13
2017-11-04T20:16:04.779Z,997.14
2017-11-04T20:17:04.797Z,997.14
2017-11-04T20:18:04.801Z,997.17
2017-11-04T20:19:04.819Z,997.16
2017-11-04T20:20:04.865Z,997.11
2017-11-04T20:21:04.870Z,997.11
2017-11-04T20:22:04.870Z,997.16
2017-11-04T20:23:04.887Z,997.12
2017-11-04T20:24:04.908Z,997.11
2017-11-04T20:25:04.938Z,997.1
2017-11-04T20:26:04.956Z,997.1
2017-11-04T20:27:04.956Z,997.13
2017-11-04T20:28:04.988Z,997.09
2017-11-04T20:29:05.045Z,997.05
2017-11-04T20:30:05.012Z,997.06
2017-11-04T20:31:05.029Z,997.06
2017-11-04T20:32:05.066Z,997.05
2017-11-04T20:33:05.066Z,997.05
2017-11-04T20:34:05.094Z,997.04
2017-11-04T20:35:05.113Z,997.08
2017-11-04T20:36:05.119Z,997.04
2017-11-04T20:37:05.137Z,997.06
2017-11-04T20:38:05.153Z,997.05
2017-11-04T20:39:05.186Z,997.04
2017-11-04T20:40:05.194Z,997.05
2017-11-04T20:41:05.221Z,997.01
2017-11-04T20:42:05.237Z,997.01
2017-11-04T20:43:05.237Z,997
2017-11-04T20:44:05.272Z,996.96
2017-11-04T20:45:05.293Z,996.96
2017-11-04T20:46:05.293Z,996.91
2017-11-04T20:47:05.308Z,996.92
2017-11-04T20:48:05.340Z,996.87
2017-11-04T20:49:05.342Z,996.87
2017-11-04T20:50:05.361Z,996.87
2017-11-04T20:51:05.378Z,996.85
2017-11-04T20:52:05.411Z,996.81
2017-11-04T20:53:05.413Z,996.8
2017-11-04T20:54:05.444Z,996.89
2017-11-04T20:55:05.448Z,996.87
2017-11-04T20:56:05.465Z,996.91
2017-11-04T20:57:05.497Z,996.89
2017-11-04T20:58:05.501Z,996.88
2017-11-04T20:59:05.518Z,996.9
2017-11-04T21:00:05.549Z,996.92
2017-11-04T21:01:05.551Z,996.89
2017-11-04T21:02:05.585Z,996.87
2017-11-04T21:03:05.602Z,996.8
2017-11-04T21:04:05.618Z,996.78
2017-11-04T21:05:05.622Z,996.8
2017-11-04T21:06:05.654Z,996.79
2017-11-04T21:07:05.669Z,996.8
2017-11-04T21:08:05.690Z,996.78
2017-11-04T21:09:05.690Z,996.77
2017-11-04T21:10:05.710Z,996.76
2017-11-04T21:11:05.741Z,996.82
2017-11-04T21:12:05.756Z,996.78
2017-11-04T21:13:05.760Z,996.84
2017-11-04T21:14:05.791Z,996.8
2017-11-04T21:15:05.822Z,996.8
2017-11-04T21:16:05.811Z,996.8
2017-11-04T21:17:05.844Z,996.75
2017-11-04T21:18:05.849Z,996.75
2017-11-04T21:19:05.878Z,996.71
2017-11-04T21:20:05.896Z,996.69
2017-11-04T21:21:05.918Z,996.7
2017-11-04T21:22:05.920Z,996.68
2017-11-04T21:23:05.934Z,996.64
2017-11-04T21:24:05.950Z,996.63
2017-11-04T21:25:05.981Z,996.64
2017-11-04T21:26:05.986Z,996.56
2017-11-04T21:27:06.004Z,996.6
2017-11-04T21:28:06.020Z,996.59
2017-11-04T21:29:06.053Z,996.64
2017-11-04T21:30:06.072Z,996.63
2017-11-04T21:31:06.086Z,996.68
2017-11-04T21:32:06.105Z,996.7
2017-11-04T21:33:06.130Z,996.71
2017-11-04T21:34:06.141Z,996.73
2017-11-04T21:35:06.142Z,996.69
2017-11-04T21:36:06.171Z,996.69
2017-11-04T21:37:06.195Z,996.72
2017-11-04T21:38:06.191Z,996.71
2017-11-04T21:39:06.209Z,996.72
2017-11-04T21:40:06.240Z,996.74
2017-11-04T21:41:06.246Z,996.72
2017-11-04T21:42:06.276Z,996.7
2017-11-04T21:43:06.293Z,996.71
2017-11-04T21:44:06.297Z,996.73
2017-11-04T21:45:06.312Z,996.68
2017-11-04T21:46:06.343Z,996.69
2017-11-04T21:47:06.360Z,996.74
2017-11-04T21:48:06.385Z,996.73
2017-11-04T21:49:06.397Z,996.71
2017-11-04T21:50:06.400Z,996.68
2017-11-04T21:51:06.431Z,996.68
2017-11-04T21:52:06.448Z,996.66
2017-11-04T21:53:06.449Z,996.64
2017-11-04T21:54:06.467Z,996.67
2017-11-04T21:55:06.498Z,996.72
2017-11-04T21:56:06.502Z,996.66
2017-11-04T21:57:06.520Z,996.67
2017-11-04T21:58:06.550Z,996.71
2017-11-04T21:59:06.556Z,996.68
2017-11-04T22:00:06.572Z,996.71
2017-11-04T22:01:06.603Z,996.64
2017-11-04T22:02:06.605Z,996.69
2017-11-04T22:03:06.636Z,996.72
2017-11-04T22:04:06.640Z,996.7
2017-11-04T22:05:06.670Z,996.67
2017-11-04T22:06:06.687Z,996.65
2017-11-04T22:07:06.691Z,996.71
2017-11-04T22:08:06.709Z,996.67
2017-11-04T22:09:06.739Z,996.65
2017-11-04T22:10:06.758Z,996.69
2017-11-04T22:11:06.760Z,996.65
2017-11-04T22:12:06.778Z,996.66
2017-11-04T22:13:06.793Z,996.67
2017-11-04T22:14:06.811Z,996.65
2017-11-04T22:15:06.830Z,996.64
2017-11-04T22:16:06.844Z,996.63
2017-11-04T22:17:06.875Z,996.63
2017-11-04T22:18:06.879Z,996.66
2017-11-04T22:19:06.895Z,996.62
2017-11-04T22:20:06.927Z,996.64
2017-11-04T22:21:06.943Z,996.6
2017-11-04T22:22:06.945Z,996.68
2017-11-04T22:23:06.989Z,996.7
2017-11-04T22:24:06.989Z,996.64
2017-11-04T22:25:06.998Z,996.63
2017-11-04T22:26:07.033Z,996.62
2017-11-04T22:27:07.031Z,996.63
2017-11-04T22:28:07.063Z,996.58
2017-11-04T22:29:07.086Z,996.62
2017-11-04T22:30:07.098Z,996.63
2017-11-04T22:31:07.100Z,996.61
2017-11-04T22:32:07.132Z,996.59
2017-11-04T22:33:07.149Z,996.59
2017-11-04T22:34:07.152Z,996.62
2017-11-04T22:35:07.181Z,996.63
2017-11-04T22:36:07.198Z,996.62
2017-11-04T22:37:07.201Z,996.63
2017-11-04T22:38:07.220Z,996.61
2017-11-04T22:39:07.236Z,996.65
2017-11-04T22:40:07.254Z,996.62
2017-11-04T22:41:07.269Z,996.6
2017-11-04T22:42:07.285Z,996.61
2017-11-04T22:43:07.303Z,996.62
2017-11-04T22:44:07.324Z,996.62
2017-11-04T22:45:07.340Z,996.59
2017-11-04T22:46:07.354Z,996.59
2017-11-04T22:47:07.371Z,996.57
2017-11-04T22:48:07.389Z,996.62
2017-11-04T22:49:07.404Z,996.61
2017-11-04T22:50:07.436Z,996.62
2017-11-04T22:51:07.439Z,996.65
2017-11-04T22:52:07.464Z,996.59
2017-11-04T22:53:07.474Z,996.62
2017-11-04T22:54:07.489Z,996.58
2017-11-04T22:55:07.511Z,996.59
2017-11-04T22:56:07.525Z,996.56
2017-11-04T22:57:07.553Z,996.55
2017-11-04T22:58:07.568Z,996.52
2017-11-04T22:59:07.575Z,996.51
2017-11-04T23:00:07.608Z,996.52
2017-11-04T23:01:07.610Z,996.56
2017-11-04T23:02:07.640Z,996.52
2017-11-04T23:03:07.643Z,996.53
2017-11-04T23:04:07.657Z,996.47
2017-11-04T23:05:07.674Z,996.47
2017-11-04T23:06:07.705Z,996.44
2017-11-04T23:07:07.721Z,996.46
2017-11-04T23:08:07.739Z,996.41
2017-11-04T23:09:07.742Z,996.41
2017-11-04T23:10:07.760Z,996.42
2017-11-04T23:11:07.790Z,996.38
2017-11-04T23:12:07.799Z,996.41
2017-11-04T23:13:07.810Z,996.37
2017-11-04T23:14:07.841Z,996.39
2017-11-04T23:15:07.857Z,996.35
2017-11-04T23:16:07.862Z,996.35
2017-11-04T23:17:07.890Z,996.34
2017-11-04T23:18:07.896Z,996.34
2017-11-04T23:19:07.913Z,996.3
2017-11-04T23:20:07.929Z,996.33
2017-11-04T23:21:07.946Z,996.34
2017-11-04T23:22:07.961Z,996.29
2017-11-04T23:23:07.981Z,996.33
2017-11-04T23:24:08.003Z,996.32
2017-11-04T23:25:08.013Z,996.3
2017-11-04T23:26:08.030Z,996.27
2017-11-04T23:27:08.048Z,996.26
2017-11-04T23:28:08.064Z,996.28
2017-11-04T23:29:08.081Z,996.24
2017-11-04T23:30:08.095Z,996.23
2017-11-04T23:31:08.113Z,996.22
2017-11-04T23:32:08.133Z,996.23
2017-11-04T23:33:08.147Z,996.19
2017-11-04T23:34:08.167Z,996.2
2017-11-04T23:35:08.180Z,996.17
2017-11-04T23:36:08.197Z,996.2
2017-11-04T23:37:08.214Z,996.18
2017-11-04T23:38:08.230Z,996.18
2017-11-04T23:39:08.248Z,996.16
2017-11-04T23:40:08.264Z,996.13
2017-11-04T23:45:36.467Z,996.16
2017-11-04T23:46:36.482Z,996.13
2017-11-04T23:47:36.496Z,996.12
